Time;durP1;ratioP1;P1;durP2;ratioP2;P2;SDS_P1;SDS_P2;PMS_P1;PMS_P2;Temp;Humidity;BMP_temperature;BMP_pressure;BME280_temperature;BME280_humidity;BME280_pressure;Samples;Min_cycle;Max_cycle;Signal;HPM_P1;HPM_P2
2022/04/05 00:01:45;;;;;;;3.75;1.80;;;;;;;;;;5050870;28;20048;-76
2022/04/05 00:04:11;;;;;;;5.40;1.98;;;;;;;;;;5043217;28;20049;-76
2022/04/05 00:06:37;;;;;;;8.52;2.20;;;;;;;;;;5049496;28;20103;-76
2022/04/05 00:09:03;;;;;;;4.55;1.90;;;;;;;;;;5049834;28;20544;-76
2022/04/05 00:11:29;;;;;;;6.93;2.30;;;;;;;;;;5045667;28;20155;-76
2022/04/05 00:13:55;;;;;;;5.38;1.73;;;;;;;;;;5043237;28;20178;-76
2022/04/05 00:16:22;;;;;;;4.28;2.05;;;;;;;;;;5045180;28;20052;-76
2022/04/05 00:18:48;;;;;;;8.85;2.10;;;;;;;;;;5050378;28;20049;-76
2022/04/05 00:21:14;;;;;;;6.28;2.22;;;;;;;;;;5070468;28;20052;-75
2022/04/05 00:23:40;;;;;;;7.53;2.65;;;;;;;;;;5056476;28;20045;-76
2022/04/05 00:26:06;;;;;;;8.95;2.17;;;;;;;;;;5048937;28;20385;-76
2022/04/05 00:28:32;;;;;;;8.68;2.40;;;;;;;;;;5053177;28;20068;-76
2022/04/05 00:30:58;;;;;;;8.45;2.17;;;;;;;;;;5059113;28;20462;-76
2022/04/05 00:33:24;;;;;;;10.75;2.60;;;;;;;;;;5049186;28;20072;-76
2022/04/05 00:35:50;;;;;;;7.13;2.63;;;;;;;;;;5048707;28;20084;-76
2022/04/05 00:38:16;;;;;;;9.15;2.60;;;;;;;;;;5051499;28;20481;-76
2022/04/05 00:40:42;;;;;;;6.07;2.20;;;;;;;;;;5052757;28;20037;-76
2022/04/05 00:43:08;;;;;;;8.18;2.40;;;;;;;;;;5074747;28;20044;-76
2022/04/05 00:45:35;;;;;;;5.57;2.13;;;;;;;;;;5072976;28;20403;-76
2022/04/05 00:48:02;;;;;;;8.35;2.38;;;;;;;;;;5054990;28;20424;-76
2022/04/05 00:50:28;;;;;;;6.07;2.00;;;;;;;;;;5069409;28;20045;-76
2022/04/05 00:52:54;;;;;;;5.25;2.10;;;;;;;;;;5075815;28;20099;-76
2022/04/05 00:55:22;;;;;;;10.45;2.90;;;;;;;;;;5067164;28;20044;-76
2022/04/05 00:57:53;;;;;;;8.32;2.38;;;;;;;;;;5064127;28;20040;-76
2022/04/05 01:00:19;;;;;;;7.78;2.13;;;;;;;;;;5059817;28;20048;-76
2022/04/05 01:02:50;;;;;;;6.60;2.03;;;;;;;;;;5061063;28;20448;-76
2022/04/05 01:05:18;;;;;;;12.82;2.15;;;;;;;;;;5068636;28;20119;-76
2022/04/05 01:07:45;;;;;;;10.65;2.55;;;;;;;;;;5070942;28;20127;-76
2022/04/05 01:10:11;;;;;;;8.23;2.40;;;;;;;;;;5052932;28;20045;-76
2022/04/05 01:12:37;;;;;;;11.02;2.53;;;;;;;;;;5058792;28;20037;-77
2022/04/05 01:15:03;;;;;;;7.60;2.22;;;;;;;;;;5061974;28;20492;-76
2022/04/05 01:17:30;;;;;;;7.32;2.13;;;;;;;;;;5066890;28;20119;-76
2022/04/05 01:19:58;;;;;;;5.93;2.08;;;;;;;;;;5061423;28;20048;-76
2022/04/05 01:22:24;;;;;;;6.65;2.38;;;;;;;;;;5059000;28;20049;-77
2022/04/05 01:24:51;;;;;;;4.15;2.22;;;;;;;;;;5079494;28;20105;-76
2022/04/05 01:27:19;;;;;;;6.45;2.15;;;;;;;;;;5069917;28;20043;-77
2022/04/05 01:29:45;;;;;;;9.45;2.22;;;;;;;;;;5067420;28;20203;-77
2022/04/05 01:32:11;;;;;;;7.03;2.38;;;;;;;;;;5056909;28;20047;-76
2022/04/05 01:34:38;;;;;;;5.63;2.05;;;;;;;;;;5090524;28;20048;-77
2022/04/05 01:37:05;;;;;;;9.10;2.67;;;;;;;;;;5051390;28;20087;-76
2022/04/05 01:39:32;;;;;;;5.90;2.10;;;;;;;;;;5067763;28;20056;-77
2022/04/05 01:42:09;;;;;;;8.98;2.47;;;;;;;;;;5080521;28;20374;-77
2022/04/05 01:44:36;;;;;;;7.65;2.10;;;;;;;;;;5068951;28;20079;-77
2022/04/05 01:47:07;;;;;;;5.07;2.10;;;;;;;;;;5060839;28;20463;-77
2022/04/05 01:49:33;;;;;;;11.75;2.78;;;;;;;;;;5075278;28;20127;-77
2022/04/05 01:51:59;;;;;;;9.70;2.28;;;;;;;;;;5049570;28;20095;-77
2022/04/05 01:54:25;;;;;;;9.65;2.65;;;;;;;;;;5061714;28;20096;-76
2022/04/05 01:56:52;;;;;;;7.15;2.05;;;;;;;;;;5063549;28;20049;-76
2022/04/05 01:59:20;;;;;;;3.80;1.98;;;;;;;;;;5050958;28;20062;-77
2022/04/05 02:01:46;;;;;;;4.72;1.95;;;;;;;;;;5050387;28;20037;-77
2022/04/05 02:04:13;;;;;;;9.90;2.50;;;;;;;;;;5054829;28;20628;-77
2022/04/05 02:06:39;;;;;;;7.22;2.28;;;;;;;;;;5074357;28;20069;-76
2022/04/05 02:09:05;;;;;;;8.07;2.30;;;;;;;;;;5054256;28;20044;-77
2022/04/05 02:11:32;;;;;;;12.48;2.65;;;;;;;;;;5065611;28;20047;-76
2022/04/05 02:13:58;;;;;;;7.10;2.20;;;;;;;;;;5052534;28;20044;-77
2022/04/05 02:16:26;;;;;;;9.13;2.30;;;;;;;;;;5077692;28;20048;-76
2022/04/05 02:18:52;;;;;;;10.13;2.30;;;;;;;;;;5055107;28;20504;-76
2022/04/05 02:21:18;;;;;;;7.80;2.50;;;;;;;;;;5052254;28;20073;-77
2022/04/05 02:23:47;;;;;;;7.18;2.40;;;;;;;;;;5058210;28;20091;-77
2022/04/05 02:26:13;;;;;;;9.23;2.30;;;;;;;;;;5063880;28;20063;-77
2022/04/05 02:28:39;;;;;;;7.45;2.10;;;;;;;;;;5052905;28;20138;-77
2022/04/05 02:31:05;;;;;;;5.40;1.80;;;;;;;;;;5051628;28;20048;-77
2022/04/05 02:33:31;;;;;;;7.13;2.00;;;;;;;;;;5085621;28;20512;-77
2022/04/05 02:35:57;;;;;;;6.55;2.38;;;;;;;;;;5058860;28;20041;-76
2022/04/05 02:38:23;;;;;;;6.95;2.20;;;;;;;;;;5050679;28;20468;-77
2022/04/05 02:40:49;;;;;;;6.53;2.05;;;;;;;;;;5066988;28;20055;-76
2022/04/05 02:43:15;;;;;;;7.85;2.72;;;;;;;;;;5051208;28;20033;-77
2022/04/05 02:45:41;;;;;;;7.55;2.20;;;;;;;;;;5049992;28;20086;-77
2022/04/05 02:48:07;;;;;;;5.40;2.10;;;;;;;;;;5053795;28;20075;-77
2022/04/05 02:50:33;;;;;;;9.65;2.40;;;;;;;;;;5052878;28;20053;-76
2022/04/05 02:53:02;;;;;;;8.15;2.78;;;;;;;;;;5061058;28;20485;-77
2022/04/05 02:55:28;;;;;;;6.68;2.42;;;;;;;;;;5049005;28;20045;-77
2022/04/05 02:57:54;;;;;;;6.65;1.85;;;;;;;;;;5059474;28;20049;-77
2022/04/05 03:00:20;;;;;;;6.78;2.35;;;;;;;;;;5050922;28;20468;-76
2022/04/05 03:02:46;;;;;;;3.65;1.70;;;;;;;;;;5050131;28;20072;-76
2022/04/05 03:05:18;;;;;;;6.60;1.90;;;;;;;;;;5088418;28;20050;-76
2022/04/05 03:07:44;;;;;;;5.80;2.00;;;;;;;;;;5082795;28;20094;-77
2022/04/05 03:10:11;;;;;;;10.35;2.15;;;;;;;;;;5062266;28;20047;-76
2022/04/05 03:12:37;;;;;;;9.85;2.50;;;;;;;;;;5086724;28;20048;-77
2022/04/05 03:15:04;;;;;;;6.85;2.40;;;;;;;;;;5050434;28;20119;-76
2022/04/05 03:17:30;;;;;;;9.98;2.10;;;;;;;;;;5079555;28;20085;-77
2022/04/05 03:19:58;;;;;;;6.50;2.25;;;;;;;;;;5057955;28;20428;-76
2022/04/05 03:22:24;;;;;;;7.20;1.80;;;;;;;;;;5071295;28;20097;-77
2022/04/05 03:24:50;;;;;;;6.60;2.03;;;;;;;;;;5054922;28;20404;-77
2022/04/05 03:27:16;;;;;;;6.03;1.90;;;;;;;;;;5061120;28;20049;-76
2022/04/05 03:29:45;;;;;;;9.02;2.30;;;;;;;;;;5054448;28;20500;-76
2022/04/05 03:32:11;;;;;;;5.15;1.98;;;;;;;;;;5050243;28;20102;-76
2022/04/05 03:34:38;;;;;;;6.60;2.58;;;;;;;;;;5049547;28;20055;-76
2022/04/05 03:37:04;;;;;;;6.97;2.20;;;;;;;;;;5068275;28;20088;-77
2022/04/05 03:39:30;;;;;;;6.60;2.30;;;;;;;;;;5072681;28;20044;-76
2022/04/05 03:41:58;;;;;;;5.70;1.67;;;;;;;;;;5074371;28;20144;-77
2022/04/05 03:44:25;;;;;;;5.07;1.85;;;;;;;;;;5050893;28;20052;-76
2022/04/05 03:46:51;;;;;;;5.82;1.73;;;;;;;;;;5054800;28;20032;-77
2022/04/05 03:49:17;;;;;;;8.65;2.28;;;;;;;;;;5051547;28;20045;-76
2022/04/05 03:51:43;;;;;;;6.25;1.90;;;;;;;;;;5051084;28;20158;-76
2022/04/05 03:54:10;;;;;;;8.55;1.90;;;;;;;;;;5051490;28;20033;-77
2022/04/05 03:56:36;;;;;;;6.97;1.83;;;;;;;;;;5061920;28;20106;-77
2022/04/05 03:59:02;;;;;;;9.30;1.90;;;;;;;;;;5059190;28;20044;-78
2022/04/05 04:01:28;;;;;;;5.47;1.73;;;;;;;;;;5066871;28;20068;-77
2022/04/05 04:03:54;;;;;;;6.03;2.10;;;;;;;;;;5068855;28;20452;-77
2022/04/05 04:06:19;;;;;;;7.75;2.05;;;;;;;;;;5051124;28;20563;-77
2022/04/05 04:08:46;;;;;;;6.20;1.80;;;;;;;;;;5076742;28;20044;-77
2022/04/05 04:11:12;;;;;;;5.68;2.20;;;;;;;;;;5058830;28;20048;-76
2022/04/05 04:13:38;;;;;;;7.80;2.10;;;;;;;;;;5065888;28;20108;-77
2022/04/05 04:16:04;;;;;;;7.05;2.38;;;;;;;;;;5057797;28;20182;-77
2022/04/05 04:18:30;;;;;;;5.28;2.10;;;;;;;;;;5074032;28;21353;-77
2022/04/05 04:20:56;;;;;;;10.70;2.67;;;;;;;;;;5084936;28;20118;-77
2022/04/05 04:23:22;;;;;;;5.43;2.05;;;;;;;;;;5065609;28;20055;-77
2022/04/05 04:25:48;;;;;;;4.57;2.10;;;;;;;;;;5056047;28;20056;-77
2022/04/05 04:28:14;;;;;;;7.82;1.95;;;;;;;;;;5058594;28;20075;-77
2022/04/05 04:30:41;;;;;;;4.68;1.90;;;;;;;;;;5056886;28;20119;-77
2022/04/05 04:33:10;;;;;;;12.88;2.25;;;;;;;;;;5048974;28;20113;-77
2022/04/05 04:35:38;;;;;;;4.63;1.90;;;;;;;;;;5054525;28;20529;-78
2022/04/05 04:38:06;;;;;;;6.00;2.28;;;;;;;;;;5070971;28;20127;-77
2022/04/05 04:40:32;;;;;;;7.32;2.00;;;;;;;;;;5070460;28;20054;-77
2022/04/05 04:42:58;;;;;;;2.97;1.80;;;;;;;;;;5083421;28;20052;-77
2022/04/05 04:45:27;;;;;;;7.78;2.17;;;;;;;;;;5064394;28;20437;-77
2022/04/05 04:47:53;;;;;;;5.35;2.00;;;;;;;;;;5064037;28;20488;-77
2022/04/05 04:50:20;;;;;;;8.13;2.20;;;;;;;;;;5071134;28;20048;-77
2022/04/05 04:52:45;;;;;;;9.68;2.33;;;;;;;;;;5058668;28;21437;-76
2022/04/05 04:55:11;;;;;;;5.40;2.17;;;;;;;;;;5054855;28;20103;-77
2022/04/05 04:57:37;;;;;;;9.13;2.30;;;;;;;;;;5064607;28;20664;-77
2022/04/05 05:00:05;;;;;;;9.73;2.20;;;;;;;;;;5054786;28;20064;-77
2022/04/05 05:02:31;;;;;;;6.53;2.10;;;;;;;;;;5052608;28;20225;-77
2022/04/05 05:04:57;;;;;;;3.70;1.77;;;;;;;;;;5055360;28;20120;-77
2022/04/05 05:07:23;;;;;;;6.78;1.92;;;;;;;;;;5057553;28;20116;-77
2022/04/05 05:09:49;;;;;;;6.15;2.33;;;;;;;;;;5078993;28;20047;-77
2022/04/05 05:12:15;;;;;;;7.57;1.92;;;;;;;;;;5080148;28;20334;-76
2022/04/05 05:14:41;;;;;;;5.18;2.00;;;;;;;;;;5072391;28;20040;-77
2022/04/05 05:17:07;;;;;;;7.90;2.83;;;;;;;;;;5051349;28;20045;-76
2022/04/05 05:19:33;;;;;;;6.05;1.98;;;;;;;;;;5051492;28;20045;-77
2022/04/05 05:21:59;;;;;;;7.55;1.75;;;;;;;;;;5052191;28;20055;-77
2022/04/05 05:24:25;;;;;;;5.88;2.30;;;;;;;;;;5058573;28;20055;-77
2022/04/05 05:26:52;;;;;;;3.92;1.73;;;;;;;;;;5076708;28;20053;-77
2022/04/05 05:29:18;;;;;;;5.18;1.90;;;;;;;;;;5058715;28;20582;-77
2022/04/05 05:31:44;;;;;;;6.90;1.90;;;;;;;;;;5063155;28;20428;-77
2022/04/05 05:34:10;;;;;;;7.78;1.80;;;;;;;;;;5062339;28;20412;-77
2022/04/05 05:36:36;;;;;;;4.40;1.77;;;;;;;;;;5056379;28;20135;-77
2022/04/05 05:39:02;;;;;;;10.63;2.28;;;;;;;;;;5057379;28;20106;-77
2022/04/05 05:41:27;;;;;;;6.15;1.73;;;;;;;;;;5086237;28;20057;-77
2022/04/05 05:43:53;;;;;;;6.25;1.80;;;;;;;;;;5051797;28;20687;-77
2022/04/05 05:46:20;;;;;;;4.53;1.95;;;;;;;;;;5062836;28;20066;-77
2022/04/05 05:48:48;;;;;;;5.90;2.10;;;;;;;;;;5073050;28;20374;-77
2022/04/05 05:51:14;;;;;;;5.38;2.08;;;;;;;;;;5062888;28;20051;-77
2022/04/05 05:53:43;;;;;;;4.07;1.60;;;;;;;;;;5071699;28;20153;-77
2022/04/05 05:56:09;;;;;;;5.60;1.90;;;;;;;;;;5061797;28;20049;-77
2022/04/05 05:58:35;;;;;;;5.20;1.95;;;;;;;;;;5052143;28;20048;-78
2022/04/05 06:01:01;;;;;;;6.22;2.20;;;;;;;;;;5086195;27;20120;-77
2022/04/05 06:03:28;;;;;;;6.90;2.00;;;;;;;;;;5056947;28;20047;-77
2022/04/05 06:05:54;;;;;;;4.35;2.00;;;;;;;;;;5063608;28;20453;-77
2022/04/05 06:08:20;;;;;;;4.68;2.00;;;;;;;;;;5070766;28;20123;-77
2022/04/05 06:10:46;;;;;;;4.30;1.80;;;;;;;;;;5060347;28;20041;-77
2022/04/05 06:13:12;;;;;;;5.50;1.90;;;;;;;;;;5083728;28;20082;-77
2022/04/05 06:15:38;;;;;;;8.77;2.03;;;;;;;;;;5062326;28;20488;-77
2022/04/05 06:18:04;;;;;;;3.30;1.60;;;;;;;;;;5072848;28;20431;-77
2022/04/05 06:20:30;;;;;;;6.20;1.80;;;;;;;;;;5075249;28;20446;-77
2022/04/05 06:23:01;;;;;;;5.80;1.98;;;;;;;;;;5061655;28;20045;-77
2022/04/05 06:25:30;;;;;;;3.63;1.80;;;;;;;;;;5065827;28;20048;-77
2022/04/05 06:27:57;;;;;;;4.55;1.80;;;;;;;;;;5079296;28;20052;-77
2022/04/05 06:30:24;;;;;;;6.97;2.40;;;;;;;;;;5079847;28;20072;-77
2022/04/05 06:32:50;;;;;;;5.22;2.20;;;;;;;;;;5066396;28;20040;-77
2022/04/05 06:35:16;;;;;;;6.82;1.88;;;;;;;;;;5066025;28;20466;-77
2022/04/05 06:37:43;;;;;;;5.03;1.85;;;;;;;;;;5068740;28;20062;-78
2022/04/05 06:40:09;;;;;;;4.93;1.90;;;;;;;;;;5071401;28;20036;-77
2022/04/05 06:42:41;;;;;;;5.18;1.88;;;;;;;;;;5080797;28;20127;-78
2022/04/05 06:45:07;;;;;;;4.45;1.75;;;;;;;;;;5064158;28;20058;-77
2022/04/05 06:47:33;;;;;;;5.65;1.73;;;;;;;;;;5067527;28;20113;-77
2022/04/05 06:49:59;;;;;;;1.80;1.60;;;;;;;;;;5072440;28;20041;-77
2022/04/05 06:52:25;;;;;;;3.58;1.70;;;;;;;;;;5082541;28;20131;-77
2022/04/05 06:54:51;;;;;;;3.45;1.90;;;;;;;;;;5075202;28;20037;-78
2022/04/05 06:57:18;;;;;;;3.30;2.15;;;;;;;;;;5074173;28;20052;-77
2022/04/05 06:59:44;;;;;;;5.65;2.17;;;;;;;;;;5071876;28;20072;-78
2022/04/05 07:02:11;;;;;;;5.07;1.92;;;;;;;;;;5081381;28;20063;-76
2022/04/05 07:04:37;;;;;;;4.82;1.88;;;;;;;;;;5066886;28;20053;-76
2022/04/05 07:07:03;;;;;;;1.88;1.45;;;;;;;;;;5087759;28;20048;-76
2022/04/05 07:09:29;;;;;;;1.50;1.40;;;;;;;;;;5095995;28;20446;-76
2022/04/05 07:11:55;;;;;;;3.03;1.60;;;;;;;;;;5065573;28;20040;-76
2022/04/05 07:14:21;;;;;;;3.25;1.77;;;;;;;;;;5060494;28;20052;-76
2022/04/05 07:16:47;;;;;;;2.15;1.77;;;;;;;;;;5062076;28;20112;-76
2022/04/05 07:19:13;;;;;;;2.40;1.92;;;;;;;;;;5056289;28;20099;-76
2022/04/05 07:21:39;;;;;;;2.97;2.13;;;;;;;;;;5055638;28;20071;-76
2022/04/05 07:24:06;;;;;;;3.60;1.73;;;;;;;;;;5059750;28;20492;-76
2022/04/05 07:26:35;;;;;;;4.07;1.77;;;;;;;;;;5057833;28;20102;-76
2022/04/05 07:29:01;;;;;;;3.65;1.50;;;;;;;;;;5086461;28;20408;-76
2022/04/05 07:31:27;;;;;;;2.15;1.70;;;;;;;;;;5062754;28;20661;-76
2022/04/05 07:33:53;;;;;;;2.30;1.70;;;;;;;;;;5063032;28;20039;-76
2022/04/05 07:36:19;;;;;;;3.50;1.90;;;;;;;;;;5056113;28;20488;-76
2022/04/05 07:38:45;;;;;;;3.22;1.90;;;;;;;;;;5057634;28;20090;-76
2022/04/05 07:41:11;;;;;;;3.97;2.00;;;;;;;;;;5058664;28;20374;-76
2022/04/05 07:43:40;;;;;;;3.53;1.67;;;;;;;;;;5056579;28;20084;-76
2022/04/05 07:46:05;;;;;;;4.15;1.65;;;;;;;;;;5061962;28;20033;-77
2022/04/05 07:48:32;;;;;;;3.97;1.70;;;;;;;;;;5055306;28;20163;-76
2022/04/05 07:51:00;;;;;;;3.45;1.80;;;;;;;;;;5063908;28;20119;-76
2022/04/05 07:53:26;;;;;;;2.50;1.60;;;;;;;;;;5057685;28;20124;-77
2022/04/05 07:55:53;;;;;;;3.80;1.88;;;;;;;;;;5064085;28;20048;-76
2022/04/05 07:58:19;;;;;;;2.92;1.60;;;;;;;;;;5050270;28;20045;-77
2022/04/05 08:00:46;;;;;;;1.95;1.50;;;;;;;;;;5051339;28;20110;-76
2022/04/05 08:03:12;;;;;;;2.95;1.88;;;;;;;;;;5057144;28;20610;-76
2022/04/05 08:05:40;;;;;;;2.40;1.52;;;;;;;;;;5050535;28;20120;-75
2022/04/05 08:08:06;;;;;;;3.45;1.77;;;;;;;;;;5080576;28;20401;-76
2022/04/05 08:10:32;;;;;;;1.90;1.67;;;;;;;;;;5074902;28;20092;-75
2022/04/05 08:13:00;;;;;;;3.53;1.30;;;;;;;;;;5060209;28;20144;-75
2022/04/05 08:15:26;;;;;;;2.47;1.60;;;;;;;;;;5051921;28;20059;-76
2022/04/05 08:17:52;;;;;;;2.15;1.60;;;;;;;;;;5062101;28;20036;-75
2022/04/05 08:20:19;;;;;;;2.60;1.70;;;;;;;;;;5061970;28;20044;-75
2022/04/05 08:22:45;;;;;;;1.50;1.40;;;;;;;;;;5071003;28;20047;-75
2022/04/05 08:25:14;;;;;;;2.85;1.77;;;;;;;;;;5057764;28;20168;-76
2022/04/05 08:27:40;;;;;;;1.90;1.58;;;;;;;;;;5070853;28;20136;-76
2022/04/05 08:30:08;;;;;;;1.63;1.52;;;;;;;;;;5076965;28;20487;-76
2022/04/05 08:32:36;;;;;;;3.10;2.13;;;;;;;;;;5064899;28;20044;-76
2022/04/05 08:35:03;;;;;;;1.50;1.40;;;;;;;;;;5065150;28;20134;-76
2022/04/05 08:37:29;;;;;;;3.15;1.58;;;;;;;;;;5059749;28;20047;-76
2022/04/05 08:39:55;;;;;;;1.92;1.65;;;;;;;;;;5081869;28;20044;-75
2022/04/05 08:42:23;;;;;;;1.60;1.50;;;;;;;;;;5053955;28;20049;-76
2022/04/05 08:44:49;;;;;;;2.95;1.50;;;;;;;;;;5064621;28;20048;-76
2022/04/05 08:47:21;;;;;;;1.90;1.75;;;;;;;;;;5058759;28;20392;-76
2022/04/05 08:49:47;;;;;;;1.35;1.25;;;;;;;;;;5063645;28;20529;-75
2022/04/05 08:52:13;;;;;;;1.50;1.40;;;;;;;;;;5068363;28;20047;-76
2022/04/05 08:54:39;;;;;;;1.30;1.20;;;;;;;;;;5070131;28;20032;-76
2022/04/05 08:57:05;;;;;;;1.50;1.40;;;;;;;;;;5069885;28;20051;-76
2022/04/05 08:59:31;;;;;;;1.48;1.30;;;;;;;;;;5065769;28;20072;-76
2022/04/05 09:01:58;;;;;;;1.65;1.50;;;;;;;;;;5062836;28;20479;-76
2022/04/05 09:04:24;;;;;;;1.40;1.30;;;;;;;;;;5067845;28;20052;-75
2022/04/05 09:06:50;;;;;;;1.60;1.50;;;;;;;;;;5068953;28;20040;-75
2022/04/05 09:09:17;;;;;;;1.77;1.48;;;;;;;;;;5068734;28;20055;-76
2022/04/05 09:11:47;;;;;;;3.45;1.50;;;;;;;;;;5064206;28;20185;-76
2022/04/05 09:14:14;;;;;;;1.20;1.20;;;;;;;;;;5058145;28;20040;-76
2022/04/05 09:16:40;;;;;;;1.50;1.40;;;;;;;;;;5065878;28;20067;-76
2022/04/05 09:19:10;;;;;;;1.30;1.23;;;;;;;;;;5057600;28;20165;-76
2022/04/05 09:21:49;;;;;;;1.85;1.67;;;;;;;;;;5061621;28;20036;-76
2022/04/05 09:24:15;;;;;;;1.52;1.42;;;;;;;;;;5060584;28;20048;-76
2022/04/05 09:26:43;;;;;;;2.28;1.60;;;;;;;;;;5067509;28;20058;-77
2022/04/05 09:29:09;;;;;;;1.95;1.60;;;;;;;;;;5079734;28;20059;-76
2022/04/05 09:31:43;;;;;;;2.90;1.80;;;;;;;;;;5095817;28;20053;-76
2022/04/05 09:34:13;;;;;;;1.42;1.33;;;;;;;;;;5073332;28;20047;-76
2022/04/05 09:36:42;;;;;;;1.30;1.30;;;;;;;;;;5062407;28;20497;-76
2022/04/05 09:39:14;;;;;;;1.52;1.30;;;;;;;;;;5065037;28;20369;-76
2022/04/05 09:41:40;;;;;;;1.23;1.20;;;;;;;;;;5082750;28;20043;-76
2022/04/05 09:44:06;;;;;;;1.20;1.20;;;;;;;;;;5075030;28;20040;-76
2022/04/05 09:46:33;;;;;;;1.25;1.20;;;;;;;;;;5092746;28;20051;-76
2022/04/05 09:49:14;;;;;;;1.20;1.10;;;;;;;;;;5071146;28;20123;-76
2022/04/05 09:51:48;;;;;;;1.40;1.30;;;;;;;;;;5085733;28;20082;-76
2022/04/05 09:54:28;;;;;;;1.30;1.20;;;;;;;;;;5089746;28;20475;-76
2022/04/05 09:57:01;;;;;;;1.35;1.20;;;;;;;;;;5078830;28;20079;-75
2022/04/05 09:59:35;;;;;;;1.55;1.45;;;;;;;;;;5070690;28;20041;-76
2022/04/05 10:02:08;;;;;;;1.60;1.50;;;;;;;;;;5057009;28;20461;-76
2022/04/05 10:04:35;;;;;;;1.55;1.45;;;;;;;;;;5058912;28;20068;-77
2022/04/05 10:07:02;;;;;;;1.17;1.17;;;;;;;;;;5066021;28;20127;-77
2022/04/05 10:09:29;;;;;;;1.38;1.30;;;;;;;;;;5066602;28;20040;-77
2022/04/05 10:11:57;;;;;;;1.45;1.35;;;;;;;;;;5062847;28;20495;-77
2022/04/05 10:14:25;;;;;;;1.50;1.40;;;;;;;;;;5075295;28;20516;-77
2022/04/05 10:16:52;;;;;;;1.58;1.48;;;;;;;;;;5065528;28;20040;-77
2022/04/05 10:19:20;;;;;;;1.20;1.20;;;;;;;;;;5050333;28;20067;-77
2022/04/05 10:21:47;;;;;;;1.45;1.35;;;;;;;;;;5055923;28;20389;-77
2022/04/05 10:24:13;;;;;;;2.05;1.85;;;;;;;;;;5059172;28;20497;-77
2022/04/05 10:26:40;;;;;;;2.53;1.45;;;;;;;;;;5056433;28;20040;-78
2022/04/05 10:29:08;;;;;;;1.58;1.50;;;;;;;;;;5090593;28;20049;-78
2022/04/05 10:31:43;;;;;;;1.52;1.42;;;;;;;;;;5064375;28;20057;-78
2022/04/05 10:34:27;;;;;;;1.80;1.70;;;;;;;;;;5068443;28;20118;-78
2022/04/05 10:37:13;;;;;;;2.45;1.98;;;;;;;;;;5053151;28;20041;-77
2022/04/05 10:39:39;;;;;;;2.10;1.90;;;;;;;;;;5057695;28;20058;-77
2022/04/05 10:42:11;;;;;;;2.70;2.22;;;;;;;;;;5067209;28;20047;-77
2022/04/05 10:44:39;;;;;;;2.30;2.10;;;;;;;;;;5056214;28;20040;-77
2022/04/05 10:47:06;;;;;;;3.67;2.00;;;;;;;;;;5058529;28;20102;-77
2022/04/05 10:49:43;;;;;;;2.50;2.30;;;;;;;;;;5061959;28;20037;-77
2022/04/05 10:52:15;;;;;;;2.92;2.50;;;;;;;;;;5067676;28;20048;-77
2022/04/05 10:54:49;;;;;;;3.00;2.70;;;;;;;;;;5060960;28;20044;-79
2022/04/05 10:57:26;;;;;;;2.80;2.55;;;;;;;;;;5063088;28;20036;-77
2022/04/05 11:00:12;;;;;;;3.88;3.35;;;;;;;;;;5071235;28;20048;-76
2022/04/05 11:02:40;;;;;;;4.10;3.08;;;;;;;;;;5068647;28;20499;-77
2022/04/05 11:05:15;;;;;;;3.25;2.85;;;;;;;;;;5074726;28;20089;-77
2022/04/05 11:07:53;;;;;;;3.00;2.70;;;;;;;;;;5069148;28;20097;-77
2022/04/05 11:10:20;;;;;;;4.10;3.28;;;;;;;;;;5052751;28;20103;-77
2022/04/05 11:12:46;;;;;;;3.38;3.08;;;;;;;;;;5059237;28;20047;-76
2022/04/05 11:15:15;;;;;;;4.20;3.60;;;;;;;;;;5063850;28;20040;-77
2022/04/05 11:17:42;;;;;;;6.00;4.25;;;;;;;;;;5085089;28;20132;-77
2022/04/05 11:20:09;;;;;;;5.88;3.85;;;;;;;;;;5069220;28;20045;-76
2022/04/05 11:22:37;;;;;;;7.72;4.10;;;;;;;;;;5049945;28;20172;-76
2022/04/05 11:25:13;;;;;;;6.25;4.28;;;;;;;;;;5050495;28;20037;-76
2022/04/05 11:27:45;;;;;;;8.50;4.75;;;;;;;;;;5063556;28;20056;-76
2022/04/05 11:30:29;;;;;;;9.05;5.72;;;;;;;;;;5056879;28;20040;-76
2022/04/05 11:33:12;;;;;;;10.25;4.93;;;;;;;;;;5055079;28;20132;-76
2022/04/05 11:35:48;;;;;;;9.27;5.20;;;;;;;;;;5060547;28;20385;-77
2022/04/05 11:38:17;;;;;;;10.52;6.47;;;;;;;;;;5061759;28;20066;-76
2022/04/05 11:40:45;;;;;;;11.40;6.03;;;;;;;;;;5067676;28;20037;-76
2022/04/05 11:43:19;;;;;;;9.27;6.07;;;;;;;;;;5059582;28;20044;-77
2022/04/05 11:45:48;;;;;;;11.73;6.25;;;;;;;;;;5087173;28;20041;-76
2022/04/05 11:48:15;;;;;;;10.70;5.38;;;;;;;;;;5064835;28;20137;-77
2022/04/05 11:50:41;;;;;;;11.43;5.93;;;;;;;;;;5061774;28;20040;-77
2022/04/05 11:53:20;;;;;;;13.43;5.47;;;;;;;;;;5063752;28;20050;-77
2022/04/05 11:56:01;;;;;;;10.13;5.60;;;;;;;;;;5060486;28;20129;-77
2022/04/05 11:58:29;;;;;;;15.85;6.05;;;;;;;;;;5060211;28;20515;-77
2022/04/05 12:00:55;;;;;;;12.45;5.65;;;;;;;;;;5055264;28;20051;-77
2022/04/05 12:03:21;;;;;;;15.00;6.57;;;;;;;;;;5065582;28;20040;-77
2022/04/05 12:05:47;;;;;;;14.57;6.15;;;;;;;;;;5066692;28;20123;-76
2022/04/05 12:08:14;;;;;;;12.75;5.47;;;;;;;;;;5058646;28;20045;-77
2022/04/05 12:10:41;;;;;;;15.95;6.45;;;;;;;;;;5056780;28;20108;-77
2022/04/05 12:13:07;;;;;;;17.30;5.55;;;;;;;;;;5054491;28;20063;-76
2022/04/05 12:15:34;;;;;;;14.98;6.57;;;;;;;;;;5057682;28;20056;-76
2022/04/05 12:18:19;;;;;;;16.38;5.78;;;;;;;;;;5066511;28;20111;-76
2022/04/05 12:20:55;;;;;;;20.30;6.78;;;;;;;;;;5069058;28;20146;-76
2022/04/05 12:23:21;;;;;;;13.30;5.15;;;;;;;;;;5069407;28;20081;-76
2022/04/05 12:26:06;;;;;;;16.48;6.00;;;;;;;;;;5068847;28;20105;-76
2022/04/05 12:28:33;;;;;;;19.27;6.50;;;;;;;;;;5056436;28;20057;-77
2022/04/05 12:31:05;;;;;;;19.50;5.80;;;;;;;;;;5053691;28;20044;-77
2022/04/05 12:33:31;;;;;;;19.85;7.20;;;;;;;;;;5067333;28;20119;-77
2022/04/05 12:35:58;;;;;;;16.27;7.15;;;;;;;;;;5065232;28;20044;-76
2022/04/05 12:38:24;;;;;;;14.20;6.32;;;;;;;;;;5063847;28;20048;-76
2022/04/05 12:40:50;;;;;;;16.58;7.25;;;;;;;;;;5059547;28;20032;-75
2022/04/05 12:43:17;;;;;;;12.00;6.68;;;;;;;;;;5055881;28;20083;-76
2022/04/05 12:45:43;;;;;;;12.95;6.75;;;;;;;;;;5075197;28;20051;-77
2022/04/05 12:48:13;;;;;;;19.67;7.43;;;;;;;;;;5061842;28;20412;-75
2022/04/05 12:50:41;;;;;;;17.95;7.20;;;;;;;;;;5058823;28;20094;-76
2022/04/05 12:53:07;;;;;;;24.17;7.63;;;;;;;;;;5055126;28;20043;-77
2022/04/05 12:55:34;;;;;;;21.25;7.35;;;;;;;;;;5069921;28;20074;-77
2022/04/05 12:58:00;;;;;;;16.88;6.32;;;;;;;;;;5064904;28;20085;-76
2022/04/05 13:00:28;;;;;;;17.70;6.30;;;;;;;;;;5059683;28;20142;-76
2022/04/05 13:02:55;;;;;;;17.35;6.18;;;;;;;;;;5070419;28;20368;-76
2022/04/05 13:08:11;;;;;;;12.95;5.85;;;;;;;;;;5062846;28;20040;-76
2022/04/05 13:10:40;;;;;;;14.35;5.95;;;;;;;;;;5067112;28;20467;-76
2022/04/05 13:13:25;;;;;;;14.25;5.50;;;;;;;;;;5069101;28;20079;-76
2022/04/05 13:15:52;;;;;;;12.45;5.43;;;;;;;;;;5073976;28;20062;-76
2022/04/05 13:18:19;;;;;;;15.13;5.97;;;;;;;;;;5067174;28;20077;-76
2022/04/05 13:20:58;;;;;;;15.30;6.03;;;;;;;;;;5075728;28;20046;-76
2022/04/05 13:23:26;;;;;;;15.77;6.32;;;;;;;;;;5064820;28;20139;-77
2022/04/05 13:25:52;;;;;;;14.63;6.05;;;;;;;;;;5059211;28;20421;-77
2022/04/05 13:28:18;;;;;;;12.50;6.10;;;;;;;;;;5065340;28;20135;-77
2022/04/05 13:30:45;;;;;;;13.55;6.43;;;;;;;;;;5063851;28;20048;-77
2022/04/05 13:33:12;;;;;;;14.15;5.25;;;;;;;;;;5067121;28;20542;-76
2022/04/05 13:35:39;;;;;;;16.90;6.60;;;;;;;;;;5066599;28;20550;-76
2022/04/05 13:38:05;;;;;;;15.10;5.82;;;;;;;;;;5060367;28;20044;-76
2022/04/05 13:40:32;;;;;;;15.02;6.03;;;;;;;;;;5060232;28;20047;-76
2022/04/05 13:42:58;;;;;;;17.48;5.72;;;;;;;;;;5054776;28;20488;-76
2022/04/05 13:45:25;;;;;;;17.65;6.75;;;;;;;;;;5061363;28;20143;-76
2022/04/05 13:47:51;;;;;;;11.27;5.18;;;;;;;;;;5064967;28;20087;-76
2022/04/05 13:50:17;;;;;;;14.95;6.20;;;;;;;;;;5062901;28;20072;-76
2022/04/05 13:52:43;;;;;;;19.50;6.55;;;;;;;;;;5066938;28;20541;-77
2022/04/05 13:55:10;;;;;;;14.30;6.20;;;;;;;;;;5066914;28;20040;-76
2022/04/05 13:57:36;;;;;;;19.95;6.97;;;;;;;;;;5055626;28;20044;-76
2022/04/05 14:00:03;;;;;;;14.68;5.72;;;;;;;;;;5062477;28;20184;-77
2022/04/05 14:02:29;;;;;;;15.20;5.88;;;;;;;;;;5055923;28;20040;-76
2022/04/05 14:04:56;;;;;;;13.55;6.22;;;;;;;;;;5088202;28;20047;-76
2022/04/05 14:07:22;;;;;;;16.60;6.78;;;;;;;;;;5066839;28;20553;-76
2022/04/05 14:09:49;;;;;;;11.75;5.95;;;;;;;;;;5056672;28;20041;-76
2022/04/05 14:12:15;;;;;;;15.98;5.78;;;;;;;;;;5067434;28;20047;-76
2022/04/05 14:14:41;;;;;;;14.20;6.25;;;;;;;;;;5064318;28;20048;-77
2022/04/05 14:17:07;;;;;;;15.55;6.15;;;;;;;;;;5060463;28;20036;-77
2022/04/05 14:19:33;;;;;;;14.30;5.95;;;;;;;;;;5063962;28;20174;-76
2022/04/05 14:21:59;;;;;;;14.27;5.63;;;;;;;;;;5062228;28;20492;-77
2022/04/05 14:24:25;;;;;;;15.15;6.32;;;;;;;;;;5059531;28;20655;-76
2022/04/05 14:26:51;;;;;;;17.25;5.88;;;;;;;;;;5057675;28;20353;-76
2022/04/05 14:29:18;;;;;;;15.25;5.60;;;;;;;;;;5067510;28;20040;-76
2022/04/05 14:31:44;;;;;;;16.75;6.10;;;;;;;;;;5058745;28;20131;-77
2022/04/05 14:34:10;;;;;;;14.23;5.93;;;;;;;;;;5064866;28;20129;-77
2022/04/05 14:36:36;;;;;;;16.92;6.47;;;;;;;;;;5056674;28;20084;-77
2022/04/05 14:39:03;;;;;;;17.88;5.97;;;;;;;;;;5060925;28;20037;-77
2022/04/05 14:41:30;;;;;;;13.23;5.57;;;;;;;;;;5062856;28;20044;-77
2022/04/05 14:43:59;;;;;;;15.05;5.22;;;;;;;;;;5058214;28;20052;-77
2022/04/05 14:46:26;;;;;;;15.02;5.75;;;;;;;;;;5057006;28;20045;-77